| time (UTC) | temp C | wind direction | speed KPH | gust KPH | rain 1hr cm | rain 24hr cm | rain mn cm | humidity % | barometer mb |
| 20260507223047 | 15 | 280 | 3.2 | 6.4 | 0.00 | 0.41 | 0.30 | 33 | 1013.8 |
| 20260507221544 | 15 | 218 | 1.6 | 6.4 | 0.00 | 0.41 | 0.30 | 33 | 1013.7 |
| 20260507220042 | 16 | 211 | 1.6 | 9.7 | 0.00 | 0.41 | 0.30 | 33 | 1013.5 |
| 20260507214542 | 16 | 273 | 3.2 | 6.4 | 0.00 | 0.43 | 0.30 | 32 | 1013.3 |
| 20260507213048 | 16 | 209 | 4.8 | 12.9 | 0.00 | 0.43 | 0.30 | 31 | 1013.2 |
| 20260507211541 | 17 | 257 | 3.2 | 8.0 | 0.00 | 0.43 | 0.30 | 33 | 1013.2 |
| 20260507210107 | 17 | 205 | 1.6 | 27.4 | 0.00 | 0.43 | 0.30 | 33 | 1013.2 |
| 20260507204539 | 16 | 197 | 1.6 | 9.7 | 0.00 | 0.43 | 0.30 | 33 | 1013.3 |
| 20260507203039 | 17 | 178 | 6.4 | 12.9 | 0.00 | 0.43 | 0.30 | 31 | 1013.1 |
| 20260507201538 | 17 | 217 | 4.8 | 14.5 | 0.00 | 0.43 | 0.30 | 31 | 1013.2 |
| 20260507200051 | 17 | 241 | 1.6 | 6.4 | 0.00 | 0.43 | 0.30 | 30 | 1013.2 |
| 20260507194536 | 17 | 295 | 4.8 | 11.3 | 0.00 | 0.43 | 0.30 | 30 | 1013.4 |
| 20260507193101 | 17 | 200 | 4.8 | 11.3 | 0.00 | 0.43 | 0.30 | 32 | 1013.4 |
| 20260507191533 | 17 | 227 | 3.2 | 9.7 | 0.00 | 0.43 | 0.30 | 31 | 1013.6 |
| 20260507190037 | 17 | 211 | 3.2 | 9.7 | 0.00 | 0.43 | 0.30 | 31 | 1013.6 |
| 20260507184529 | 17 | 273 | 3.2 | 12.9 | 0.00 | 0.43 | 0.30 | 33 | 1013.7 |
| 20260507183038 | 17 | 240 | 3.2 | 8.0 | 0.00 | 0.43 | 0.30 | 34 | 1013.9 |
| 20260507181526 | 17 | 223 | 3.2 | 12.9 | 0.00 | 0.43 | 0.30 | 35 | 1014.0 |
| 20260507180125 | 16 | 213 | 4.8 | 11.3 | 0.00 | 0.43 | 0.30 | 38 | 1014.1 |
| 20260507174524 | 16 | 218 | 6.4 | 14.5 | 0.00 | 0.43 | 0.30 | 37 | 1014.2 |
| 20260507173023 | 16 | 308 | 1.6 | 12.9 | 0.00 | 0.43 | 0.30 | 42 | 1014.1 |
| 20260507171520 | 15 | 209 | 4.8 | 11.3 | 0.00 | 0.43 | 0.30 | 47 | 1014.2 |
| 20260507170018 | 16 | 183 | 3.2 | 9.7 | 0.00 | 0.43 | 0.30 | 51 | 1014.4 |
| 20260507164517 | 15 | 201 | 3.2 | 8.0 | 0.00 | 0.43 | 0.30 | 52 | 1014.5 |
| 20260507163017 | 15 | 205 | 4.8 | 12.9 | 0.00 | 0.43 | 0.30 | 50 | 1014.7 |
| 20260507161519 | 15 | 188 | 1.6 | 11.3 | 0.00 | 0.43 | 0.30 | 52 | 1014.8 |
| 20260507160021 | 15 | 292 | 4.8 | 14.5 | 0.00 | 0.43 | 0.30 | 55 | 1015.0 |
| 20260507154513 | 14 | 130 | 3.2 | 11.3 | 0.00 | 0.43 | 0.30 | 56 | 1015.3 |
| 20260507153018 | 15 | 192 | 0.0 | 6.4 | 0.00 | 0.43 | 0.30 | 55 | 1015.2 |
| 20260507151509 | 14 | 204 | 1.6 | 6.4 | 0.00 | 0.43 | 0.30 | 56 | 1015.4 |
| 20260507150010 | 15 | 223 | 4.8 | 9.7 | 0.00 | 0.43 | 0.30 | 53 | 1015.6 |
| 20260507144515 | 14 | 214 | 1.6 | 16.1 | 0.00 | 0.43 | 0.30 | 54 | 1015.8 |
| 20260507143007 | 14 | 198 | 3.2 | 9.7 | 0.00 | 0.43 | 0.30 | 56 | 1015.7 |
| 20260507141504 | 13 | 246 | 1.6 | 4.8 | 0.00 | 0.43 | 0.30 | 57 | 1015.7 |
| 20260507140002 | 13 | 305 | 1.6 | 4.8 | 0.00 | 0.43 | 0.30 | 62 | 1015.8 |
| 20260507134502 | 12 | 313 | 1.6 | 4.8 | 0.00 | 0.43 | 0.30 | 65 | 1015.7 |
| 20260507133111 | 12 | 219 | 3.2 | 6.4 | 0.03 | 0.43 | 0.30 | 66 | 1015.9 |
| 20260507131603 | 12 | 279 | 1.6 | 6.4 | 0.03 | 0.43 | 0.30 | 69 | 1016.1 |
| 20260507130058 | 11 | 259 | 3.2 | 6.4 | 0.03 | 0.43 | 0.30 | 74 | 1016.1 |
| 20260507124558 | 10 | 219 | 1.6 | 4.8 | 0.03 | 0.43 | 0.30 | 82 | 1016.2 |
| 20260507123055 | 10 | 227 | 1.6 | 4.8 | 0.03 | 0.41 | 0.28 | 86 | 1016.1 |
| 20260507121553 | 8 | 227 | 1.6 | 3.2 | 0.03 | 0.41 | 0.28 | 87 | 1016.2 |
| 20260507120053 | 8 | 222 | 1.6 | 4.8 | 0.03 | 0.41 | 0.28 | 88 | 1016.0 |
| 20260507114558 | 8 | 225 | 0.0 | 3.2 | 0.05 | 0.41 | 0.28 | 88 | 1016.1 |
| 20260507113052 | 8 | 225 | 0.0 | 3.2 | 0.05 | 0.38 | 0.25 | 87 | 1016.0 |
| 20260507111559 | 8 | 225 | 0.0 | 1.6 | 0.05 | 0.38 | 0.25 | 88 | 1015.7 |
| 20260507110050 | 8 | 225 | 0.0 | 0.0 | 0.08 | 0.38 | 0.25 | 88 | 1015.8 |
| 20260507104549 | 8 | 225 | 0.0 | 3.2 | 0.08 | 0.36 | 0.23 | 88 | 1016.1 |
| 20260507103047 | 8 | 226 | 1.6 | 3.2 | 0.08 | 0.33 | 0.20 | 88 | 1015.8 |
| 20260507101601 | 8 | 234 | 0.0 | 1.6 | 0.10 | 0.33 | 0.20 | 88 | 1015.6 |
| 20260507100043 | 8 | 234 | 0.0 | 1.6 | 0.08 | 0.30 | 0.18 | 88 | 1015.3 |
| 20260507094543 | 8 | 234 | 0.0 | 3.2 | 0.08 | 0.28 | 0.15 | 88 | 1015.2 |
| 20260507093044 | 8 | 215 | 1.6 | 4.8 | 0.05 | 0.25 | 0.13 | 88 | 1015.3 |
| 20260507091539 | 9 | 207 | 1.6 | 4.8 | 0.05 | 0.23 | 0.10 | 88 | 1015.2 |
| 20260507090033 | 10 | 205 | 0.0 | 4.8 | 0.05 | 0.23 | 0.10 | 88 | 1015.4 |
| 20260507084531 | 10 | 167 | 1.6 | 4.8 | 0.05 | 0.20 | 0.08 | 87 | 1015.2 |
| 20260507083030 | 10 | 163 | 0.0 | 1.6 | 0.08 | 0.20 | 0.08 | 87 | 1015.1 |
| 20260507081535 | 10 | 163 | 0.0 | 3.2 | 0.05 | 0.18 | 0.05 | 87 | 1014.7 |
| 20260507080026 | 10 | 236 | 1.6 | 3.2 | 0.05 | 0.18 | 0.05 | 86 | 1014.9 |
| 20260507074524 | 11 | 236 | 1.6 | 3.2 | 0.00 | 0.13 | 0.00 | 84 | 1014.8 |
| 20260507073021 | 11 | 236 | 1.6 | 4.8 | 0.00 | 0.13 | 0.00 | 83 | 1014.2 |
| 20260507071523 | 11 | 248 | 1.6 | 3.2 | 0.00 | 0.13 | 0.00 | 82 | 1014.3 |
| 20260507070019 | 11 | 247 | 1.6 | 3.2 | 0.00 | 0.13 | 0.00 | 82 | 1014.2 |
| 20260507064517 | 11 | 246 | 1.6 | 4.8 | 0.00 | 0.13 | 0.00 | 84 | 1014.3 |
| 20260507063015 | 11 | 238 | 1.6 | 4.8 | 0.00 | 0.13 | 0.00 | 85 | 1014.3 |
| 20260507061512 | 12 | 215 | 1.6 | 3.2 | 0.00 | 0.13 | 0.00 | 86 | 1013.9 |
| 20260507060011 | 12 | 290 | 1.6 | 6.4 | 0.00 | 0.13 | 0.00 | 87 | 1014.3 |
| 20260507054510 | 12 | 275 | 1.6 | 11.3 | 0.00 | 0.13 | 0.00 | 87 | 1014.6 |
| 20260507053009 | 12 | 220 | 1.6 | 4.8 | 0.00 | 0.13 | 0.00 | 87 | 1014.4 |
| 20260507051506 | 12 | 187 | 0.0 | 6.4 | 0.00 | 0.13 | 0.00 | 86 | 1014.1 |
| 20260507050008 | 13 | 217 | 1.6 | 4.8 | 0.00 | 0.13 | 0.00 | 87 | 1014.2 |
| 20260507044600 | 14 | 204 | 1.6 | 8.0 | 0.03 | 0.13 | 0.00 | 86 | 1014.2 |
| 20260507043102 | 14 | 203 | 3.2 | 6.4 | 0.03 | 0.13 | 0.00 | 86 | 1014.1 |
| 20260507041605 | 14 | 194 | 1.6 | 6.4 | 0.03 | 0.13 | 0.00 | 86 | 1014.1 |
| 20260507040057 | 14 | 201 | 3.2 | 12.9 | 0.03 | 0.13 | 0.00 | 86 | 1014.4 |
| 20260507034557 | 15 | 207 | 0.0 | 6.4 | 0.00 | 0.10 | 0.10 | 86 | 1014.4 |
| 20260507033053 | 15 | 197 | 8.0 | 16.1 | 0.00 | 0.10 | 0.10 | 87 | 1014.2 |
| 20260507031551 | 15 | 197 | 6.4 | 14.5 | 0.00 | 0.10 | 0.10 | 87 | 1013.7 |
| 20260507030056 | 14 | 203 | 3.2 | 14.5 | 0.00 | 0.10 | 0.10 | 87 | 1013.4 |
| 20260507024548 | 14 | 204 | 3.2 | 14.5 | 0.00 | 0.10 | 0.10 | 86 | 1013.7 |
| 20260507023101 | 14 | 202 | 3.2 | 11.3 | 0.00 | 0.10 | 0.10 | 86 | 1013.8 |
| 20260507021552 | 14 | 202 | 3.2 | 14.5 | 0.00 | 0.10 | 0.10 | 87 | 1013.8 |
| 20260507020046 | 14 | 184 | 3.2 | 11.3 | 0.00 | 0.10 | 0.10 | 87 | 1013.7 |
| 20260507014557 | 14 | 208 | 1.6 | 16.1 | 0.00 | 0.10 | 0.10 | 86 | 1013.9 |
| 20260507013103 | 13 | 223 | 4.8 | 16.1 | 0.00 | 0.10 | 0.10 | 87 | 1013.8 |
| 20260507011544 | 13 | 212 | 3.2 | 17.7 | 0.00 | 0.10 | 0.10 | 87 | 1014.1 |
| 20260507010042 | 13 | 194 | 4.8 | 16.1 | 0.00 | 0.10 | 0.10 | 87 | 1014.2 |
| 20260507004541 | 13 | 137 | 0.0 | 11.3 | 0.03 | 0.10 | 0.10 | 87 | 1014.1 |
| 20260507003040 | 13 | 190 | 3.2 | 14.5 | 0.03 | 0.10 | 0.10 | 87 | 1014.2 |
| 20260507001555 | 13 | 190 | 4.8 | 14.5 | 0.05 | 0.10 | 0.10 | 87 | 1013.9 |
| 20260507000039 | 14 | 215 | 3.2 | 17.7 | 0.03 | 0.08 | 0.08 | 87 | 1013.7 |
| 20260506234537 | 14 | 143 | 3.2 | 8.0 | 0.03 | 0.08 | 0.08 | 87 | 1014.0 |
| 20260506233043 | 14 | 145 | 1.6 | 4.8 | 0.05 | 0.08 | 0.08 | 87 | 1013.9 |
| 20260506231539 | 15 | 175 | 3.2 | 12.9 | 0.03 | 0.05 | 0.05 | 87 | 1013.8 |
| 20260506230033 | 15 | 162 | 1.6 | 12.9 | 0.03 | 0.05 | 0.05 | 87 | 1013.9 |
| 20260506224531 | 15 | 130 | 4.8 | 12.9 | 0.03 | 0.05 | 0.05 | 86 | 1014.1 |